sensor_id;sensor_type;location;lat;lon;timestamp;temperature;humidity
6098;DHT22;3077;50.922;6.584;2023-11-22T00:02:01;7.60;99.90
6098;DHT22;3077;50.922;6.584;2023-11-22T00:04:27;7.60;99.90
6098;DHT22;3077;50.922;6.584;2023-11-22T00:06:53;7.50;99.90
6098;DHT22;3077;50.922;6.584;2023-11-22T00:09:18;7.50;99.90
6098;DHT22;3077;50.922;6.584;2023-11-22T00:11:48;7.50;99.90
6098;DHT22;3077;50.922;6.584;2023-11-22T00:14:14;7.50;99.90
6098;DHT22;3077;50.922;6.584;2023-11-22T00:16:39;7.50;99.90
6098;DHT22;3077;50.922;6.584;2023-11-22T00:19:05;7.60;99.90
6098;DHT22;3077;50.922;6.584;2023-11-22T00:21:32;7.50;99.90
6098;DHT22;3077;50.922;6.584;2023-11-22T00:23:57;7.60;99.90
6098;DHT22;3077;50.922;6.584;2023-11-22T00:26:23;7.60;99.90
6098;DHT22;3077;50.922;6.584;2023-11-22T00:28:48;7.60;99.90
6098;DHT22;3077;50.922;6.584;2023-11-22T00:31:15;7.60;99.90
6098;DHT22;3077;50.922;6.584;2023-11-22T00:33:40;7.60;99.90
6098;DHT22;3077;50.922;6.584;2023-11-22T00:36:06;7.60;99.90
6098;DHT22;3077;50.922;6.584;2023-11-22T00:38:33;7.60;99.90
6098;DHT22;3077;50.922;6.584;2023-11-22T00:41:01;7.70;99.90
6098;DHT22;3077;50.922;6.584;2023-11-22T00:43:27;7.60;99.90
6098;DHT22;3077;50.922;6.584;2023-11-22T00:45:53;7.60;99.90
6098;DHT22;3077;50.922;6.584;2023-11-22T00:48:19;7.60;99.90
6098;DHT22;3077;50.922;6.584;2023-11-22T00:50:44;7.50;99.90
6098;DHT22;3077;50.922;6.584;2023-11-22T00:53:10;7.60;99.90
6098;DHT22;3077;50.922;6.584;2023-11-22T00:55:36;7.50;99.90
6098;DHT22;3077;50.922;6.584;2023-11-22T00:58:01;7.50;99.90
6098;DHT22;3077;50.922;6.584;2023-11-22T01:00:30;7.50;99.90
6098;DHT22;3077;50.922;6.584;2023-11-22T01:02:56;7.50;99.90
6098;DHT22;3077;50.922;6.584;2023-11-22T01:05:21;7.60;99.90
6098;DHT22;3077;50.922;6.584;2023-11-22T01:07:48;7.60;99.90
6098;DHT22;3077;50.922;6.584;2023-11-22T01:10:13;7.50;99.90
6098;DHT22;3077;50.922;6.584;2023-11-22T01:12:41;7.50;99.90
6098;DHT22;3077;50.922;6.584;2023-11-22T01:15:07;7.50;99.90
6098;DHT22;3077;50.922;6.584;2023-11-22T01:17:34;7.50;99.90
6098;DHT22;3077;50.922;6.584;2023-11-22T01:20:00;7.50;99.90
6098;DHT22;3077;50.922;6.584;2023-11-22T01:22:25;7.50;99.90
6098;DHT22;3077;50.922;6.584;2023-11-22T01:24:51;7.50;99.90
6098;DHT22;3077;50.922;6.584;2023-11-22T01:27:17;7.50;99.90
6098;DHT22;3077;50.922;6.584;2023-11-22T01:29:42;7.50;99.90
6098;DHT22;3077;50.922;6.584;2023-11-22T01:32:08;7.40;99.90
6098;DHT22;3077;50.922;6.584;2023-11-22T01:34:34;7.40;99.90
6098;DHT22;3077;50.922;6.584;2023-11-22T01:37:00;7.40;99.90
6098;DHT22;3077;50.922;6.584;2023-11-22T01:39:26;7.40;99.90
6098;DHT22;3077;50.922;6.584;2023-11-22T01:41:52;7.40;99.90
6098;DHT22;3077;50.922;6.584;2023-11-22T01:44:17;7.40;99.90
6098;DHT22;3077;50.922;6.584;2023-11-22T01:46:46;7.30;99.90
6098;DHT22;3077;50.922;6.584;2023-11-22T01:49:12;7.30;99.90
6098;DHT22;3077;50.922;6.584;2023-11-22T01:51:39;7.40;99.90
6098;DHT22;3077;50.922;6.584;2023-11-22T01:54:07;7.40;99.90
6098;DHT22;3077;50.922;6.584;2023-11-22T01:56:35;7.30;99.90
6098;DHT22;3077;50.922;6.584;2023-11-22T01:59:04;7.30;99.90
6098;DHT22;3077;50.922;6.584;2023-11-22T02:01:30;7.30;99.90
6098;DHT22;3077;50.922;6.584;2023-11-22T02:03:57;7.30;99.90
6098;DHT22;3077;50.922;6.584;2023-11-22T02:06:23;7.20;99.90
6098;DHT22;3077;50.922;6.584;2023-11-22T02:08:49;7.20;99.90
6098;DHT22;3077;50.922;6.584;2023-11-22T02:11:18;7.20;99.90
6098;DHT22;3077;50.922;6.584;2023-11-22T02:13:51;7.20;99.90
6098;DHT22;3077;50.922;6.584;2023-11-22T02:16:20;7.10;99.90
6098;DHT22;3077;50.922;6.584;2023-11-22T02:18:48;7.10;99.90
6098;DHT22;3077;50.922;6.584;2023-11-22T02:21:16;7.30;99.90
6098;DHT22;3077;50.922;6.584;2023-11-22T02:23:42;7.00;99.90
6098;DHT22;3077;50.922;6.584;2023-11-22T02:26:08;7.00;99.90
6098;DHT22;3077;50.922;6.584;2023-11-22T02:28:33;7.00;99.90
6098;DHT22;3077;50.922;6.584;2023-11-22T02:30:59;6.90;99.90
6098;DHT22;3077;50.922;6.584;2023-11-22T02:33:24;6.90;99.90
6098;DHT22;3077;50.922;6.584;2023-11-22T02:35:50;7.00;99.90
6098;DHT22;3077;50.922;6.584;2023-11-22T02:38:16;6.90;99.90
6098;DHT22;3077;50.922;6.584;2023-11-22T02:40:43;6.90;99.90
6098;DHT22;3077;50.922;6.584;2023-11-22T02:43:09;6.90;99.90
6098;DHT22;3077;50.922;6.584;2023-11-22T02:45:36;6.80;99.90
6098;DHT22;3077;50.922;6.584;2023-11-22T02:48:02;6.80;99.90
6098;DHT22;3077;50.922;6.584;2023-11-22T02:50:29;6.80;99.90
6098;DHT22;3077;50.922;6.584;2023-11-22T02:52:57;6.70;99.90
6098;DHT22;3077;50.922;6.584;2023-11-22T02:55:24;6.70;99.90
6098;DHT22;3077;50.922;6.584;2023-11-22T02:57:50;6.70;99.90
6098;DHT22;3077;50.922;6.584;2023-11-22T03:00:17;6.50;99.90
6098;DHT22;3077;50.922;6.584;2023-11-22T03:02:47;6.60;99.90
6098;DHT22;3077;50.922;6.584;2023-11-22T03:05:13;6.70;99.90
6098;DHT22;3077;50.922;6.584;2023-11-22T03:07:40;6.60;99.90
6098;DHT22;3077;50.922;6.584;2023-11-22T03:10:07;6.70;99.90
6098;DHT22;3077;50.922;6.584;2023-11-22T03:12:33;6.60;99.90
6098;DHT22;3077;50.922;6.584;2023-11-22T03:14:59;6.60;99.90
6098;DHT22;3077;50.922;6.584;2023-11-22T03:17:28;6.60;99.90
6098;DHT22;3077;50.922;6.584;2023-11-22T03:19:54;6.50;99.90
6098;DHT22;3077;50.922;6.584;2023-11-22T03:22:25;6.50;99.90
6098;DHT22;3077;50.922;6.584;2023-11-22T03:24:51;6.40;99.90
6098;DHT22;3077;50.922;6.584;2023-11-22T03:27:18;6.40;99.90
6098;DHT22;3077;50.922;6.584;2023-11-22T03:29:43;6.40;99.90
6098;DHT22;3077;50.922;6.584;2023-11-22T03:32:09;6.30;99.90
6098;DHT22;3077;50.922;6.584;2023-11-22T03:34:36;6.30;99.90
6098;DHT22;3077;50.922;6.584;2023-11-22T03:37:02;6.30;99.90
6098;DHT22;3077;50.922;6.584;2023-11-22T03:39:27;6.30;99.90
6098;DHT22;3077;50.922;6.584;2023-11-22T03:41:53;6.30;99.90
6098;DHT22;3077;50.922;6.584;2023-11-22T03:44:19;6.30;99.90
6098;DHT22;3077;50.922;6.584;2023-11-22T03:46:44;6.30;99.90
6098;DHT22;3077;50.922;6.584;2023-11-22T03:49:10;6.20;99.90
6098;DHT22;3077;50.922;6.584;2023-11-22T03:51:37;6.20;99.90
6098;DHT22;3077;50.922;6.584;2023-11-22T03:54:03;6.20;99.90
6098;DHT22;3077;50.922;6.584;2023-11-22T03:56:29;6.20;99.90
6098;DHT22;3077;50.922;6.584;2023-11-22T03:58:55;6.10;99.90
6098;DHT22;3077;50.922;6.584;2023-11-22T04:01:21;6.10;99.90
6098;DHT22;3077;50.922;6.584;2023-11-22T04:03:47;6.00;99.90
6098;DHT22;3077;50.922;6.584;2023-11-22T04:06:16;6.00;99.90
6098;DHT22;3077;50.922;6.584;2023-11-22T04:08:43;6.00;99.90
6098;DHT22;3077;50.922;6.584;2023-11-22T04:11:12;6.00;99.90
6098;DHT22;3077;50.922;6.584;2023-11-22T04:13:38;6.00;99.90
6098;DHT22;3077;50.922;6.584;2023-11-22T04:16:05;5.90;99.90
6098;DHT22;3077;50.922;6.584;2023-11-22T04:18:39;5.80;99.90
6098;DHT22;3077;50.922;6.584;2023-11-22T04:21:06;5.80;99.90
6098;DHT22;3077;50.922;6.584;2023-11-22T04:23:32;5.80;99.90
6098;DHT22;3077;50.922;6.584;2023-11-22T04:26:01;5.70;99.90
6098;DHT22;3077;50.922;6.584;2023-11-22T04:28:27;5.60;99.90
6098;DHT22;3077;50.922;6.584;2023-11-22T04:30:55;5.60;99.90
6098;DHT22;3077;50.922;6.584;2023-11-22T04:33:20;5.60;99.90
6098;DHT22;3077;50.922;6.584;2023-11-22T04:35:50;5.50;99.90
6098;DHT22;3077;50.922;6.584;2023-11-22T04:38:16;5.50;99.90
6098;DHT22;3077;50.922;6.584;2023-11-22T04:40:43;5.40;99.90
6098;DHT22;3077;50.922;6.584;2023-11-22T04:43:09;5.40;99.90
6098;DHT22;3077;50.922;6.584;2023-11-22T04:45:34;5.40;99.90
6098;DHT22;3077;50.922;6.584;2023-11-22T04:48:00;5.30;99.90
6098;DHT22;3077;50.922;6.584;2023-11-22T04:50:26;5.30;99.90
6098;DHT22;3077;50.922;6.584;2023-11-22T04:52:52;5.20;99.90
6098;DHT22;3077;50.922;6.584;2023-11-22T04:55:18;5.20;99.90
6098;DHT22;3077;50.922;6.584;2023-11-22T04:57:49;5.20;99.90
6098;DHT22;3077;50.922;6.584;2023-11-22T05:00:14;5.00;99.90
6098;DHT22;3077;50.922;6.584;2023-11-22T05:02:40;5.10;99.90
6098;DHT22;3077;50.922;6.584;2023-11-22T05:05:07;5.10;99.90
6098;DHT22;3077;50.922;6.584;2023-11-22T05:07:32;5.10;99.90
6098;DHT22;3077;50.922;6.584;2023-11-22T05:09:58;5.10;99.90
6098;DHT22;3077;50.922;6.584;2023-11-22T05:12:24;5.10;99.90
6098;DHT22;3077;50.922;6.584;2023-11-22T05:14:49;5.10;99.90
6098;DHT22;3077;50.922;6.584;2023-11-22T05:17:15;5.00;99.90
6098;DHT22;3077;50.922;6.584;2023-11-22T05:19:41;5.00;99.90
6098;DHT22;3077;50.922;6.584;2023-11-22T05:22:07;4.90;99.90
6098;DHT22;3077;50.922;6.584;2023-11-22T05:24:33;4.80;99.90
6098;DHT22;3077;50.922;6.584;2023-11-22T05:27:00;4.80;99.90
6098;DHT22;3077;50.922;6.584;2023-11-22T05:29:25;4.80;99.90
6098;DHT22;3077;50.922;6.584;2023-11-22T05:31:51;4.50;99.90
6098;DHT22;3077;50.922;6.584;2023-11-22T05:34:18;4.30;99.90
6098;DHT22;3077;50.922;6.584;2023-11-22T05:36:43;4.20;99.90
6098;DHT22;3077;50.922;6.584;2023-11-22T05:39:09;4.10;99.90
6098;DHT22;3077;50.922;6.584;2023-11-22T05:41:34;4.10;99.90
6098;DHT22;3077;50.922;6.584;2023-11-22T05:44:01;4.10;99.90
6098;DHT22;3077;50.922;6.584;2023-11-22T05:46:28;4.10;99.90
6098;DHT22;3077;50.922;6.584;2023-11-22T05:48:56;4.10;99.90
6098;DHT22;3077;50.922;6.584;2023-11-22T05:51:22;4.10;99.90
6098;DHT22;3077;50.922;6.584;2023-11-22T05:53:47;4.10;99.90
6098;DHT22;3077;50.922;6.584;2023-11-22T05:56:13;4.00;99.90
6098;DHT22;3077;50.922;6.584;2023-11-22T05:58:40;4.00;99.90
6098;DHT22;3077;50.922;6.584;2023-11-22T06:01:06;3.90;99.90
6098;DHT22;3077;50.922;6.584;2023-11-22T06:03:34;4.00;99.90
6098;DHT22;3077;50.922;6.584;2023-11-22T06:06:00;4.00;99.90
6098;DHT22;3077;50.922;6.584;2023-11-22T06:08:26;4.00;99.90
6098;DHT22;3077;50.922;6.584;2023-11-22T06:10:51;3.90;99.90
6098;DHT22;3077;50.922;6.584;2023-11-22T06:13:18;3.90;99.90
6098;DHT22;3077;50.922;6.584;2023-11-22T06:15:44;3.80;99.90
6098;DHT22;3077;50.922;6.584;2023-11-22T06:18:10;3.80;99.90
6098;DHT22;3077;50.922;6.584;2023-11-22T06:20:35;3.90;99.90
6098;DHT22;3077;50.922;6.584;2023-11-22T06:23:01;3.90;99.90
6098;DHT22;3077;50.922;6.584;2023-11-22T06:25:27;3.90;99.90
6098;DHT22;3077;50.922;6.584;2023-11-22T06:27:53;3.90;99.90
6098;DHT22;3077;50.922;6.584;2023-11-22T06:30:18;3.70;99.90
6098;DHT22;3077;50.922;6.584;2023-11-22T06:32:44;4.00;99.90
6098;DHT22;3077;50.922;6.584;2023-11-22T06:35:10;4.00;99.90
6098;DHT22;3077;50.922;6.584;2023-11-22T06:37:40;4.00;99.90
6098;DHT22;3077;50.922;6.584;2023-11-22T06:40:06;4.10;99.90
6098;DHT22;3077;50.922;6.584;2023-11-22T06:42:32;4.00;99.90
6098;DHT22;3077;50.922;6.584;2023-11-22T06:44:59;4.00;99.90
6098;DHT22;3077;50.922;6.584;2023-11-22T06:47:26;4.00;99.90
6098;DHT22;3077;50.922;6.584;2023-11-22T06:49:52;4.00;99.90
6098;DHT22;3077;50.922;6.584;2023-11-22T06:52:19;4.00;99.90
6098;DHT22;3077;50.922;6.584;2023-11-22T06:54:44;3.90;99.90
6098;DHT22;3077;50.922;6.584;2023-11-22T06:57:10;3.90;99.90
6098;DHT22;3077;50.922;6.584;2023-11-22T06:59:35;3.90;99.90
6098;DHT22;3077;50.922;6.584;2023-11-22T07:02:01;3.80;99.90
6098;DHT22;3077;50.922;6.584;2023-11-22T07:04:27;3.80;99.90
6098;DHT22;3077;50.922;6.584;2023-11-22T07:06:54;3.80;99.90
6098;DHT22;3077;50.922;6.584;2023-11-22T07:09:20;3.80;99.90
6098;DHT22;3077;50.922;6.584;2023-11-22T07:11:45;3.70;99.90
6098;DHT22;3077;50.922;6.584;2023-11-22T07:14:11;3.60;99.90
6098;DHT22;3077;50.922;6.584;2023-11-22T07:16:37;3.50;99.90
6098;DHT22;3077;50.922;6.584;2023-11-22T07:19:03;3.40;99.90
6098;DHT22;3077;50.922;6.584;2023-11-22T07:21:29;3.40;99.90
6098;DHT22;3077;50.922;6.584;2023-11-22T07:23:57;3.40;99.90
6098;DHT22;3077;50.922;6.584;2023-11-22T07:26:24;3.40;99.90
6098;DHT22;3077;50.922;6.584;2023-11-22T07:28:52;3.30;99.90
6098;DHT22;3077;50.922;6.584;2023-11-22T07:31:18;3.30;99.90
6098;DHT22;3077;50.922;6.584;2023-11-22T07:33:45;3.30;99.90
6098;DHT22;3077;50.922;6.584;2023-11-22T07:36:10;3.20;99.90
6098;DHT22;3077;50.922;6.584;2023-11-22T07:38:39;3.10;99.90
6098;DHT22;3077;50.922;6.584;2023-11-22T07:41:06;2.90;99.90
6098;DHT22;3077;50.922;6.584;2023-11-22T07:43:32;2.90;99.90
6098;DHT22;3077;50.922;6.584;2023-11-22T07:45:58;2.90;99.90
6098;DHT22;3077;50.922;6.584;2023-11-22T07:48:25;3.00;99.90
6098;DHT22;3077;50.922;6.584;2023-11-22T07:50:50;3.00;99.90
6098;DHT22;3077;50.922;6.584;2023-11-22T07:53:17;3.10;99.90
6098;DHT22;3077;50.922;6.584;2023-11-22T07:55:43;3.20;99.90
6098;DHT22;3077;50.922;6.584;2023-11-22T07:58:09;3.30;99.90
6098;DHT22;3077;50.922;6.584;2023-11-22T08:00:36;3.40;99.90
6098;DHT22;3077;50.922;6.584;2023-11-22T08:03:02;3.50;99.90
6098;DHT22;3077;50.922;6.584;2023-11-22T08:05:31;3.60;99.90
6098;DHT22;3077;50.922;6.584;2023-11-22T08:08:05;3.60;99.90
6098;DHT22;3077;50.922;6.584;2023-11-22T08:10:34;3.70;99.90
6098;DHT22;3077;50.922;6.584;2023-11-22T08:13:00;3.80;99.90
6098;DHT22;3077;50.922;6.584;2023-11-22T08:15:26;3.80;99.90
6098;DHT22;3077;50.922;6.584;2023-11-22T08:17:51;3.90;99.90
6098;DHT22;3077;50.922;6.584;2023-11-22T08:20:17;4.00;99.90
6098;DHT22;3077;50.922;6.584;2023-11-22T08:22:44;4.10;99.90
6098;DHT22;3077;50.922;6.584;2023-11-22T08:25:11;4.20;99.90
6098;DHT22;3077;50.922;6.584;2023-11-22T08:27:41;4.20;99.90
6098;DHT22;3077;50.922;6.584;2023-11-22T08:30:08;4.50;99.90
6098;DHT22;3077;50.922;6.584;2023-11-22T08:32:39;4.40;99.90
6098;DHT22;3077;50.922;6.584;2023-11-22T08:35:07;4.40;99.90
6098;DHT22;3077;50.922;6.584;2023-11-22T08:37:33;4.40;99.90
6098;DHT22;3077;50.922;6.584;2023-11-22T08:40:01;4.40;99.90
6098;DHT22;3077;50.922;6.584;2023-11-22T08:42:26;4.40;99.90
6098;DHT22;3077;50.922;6.584;2023-11-22T08:44:52;4.30;99.90
6098;DHT22;3077;50.922;6.584;2023-11-22T08:47:17;4.40;99.90
6098;DHT22;3077;50.922;6.584;2023-11-22T08:49:43;4.30;99.90
6098;DHT22;3077;50.922;6.584;2023-11-22T08:52:09;4.20;99.90
6098;DHT22;3077;50.922;6.584;2023-11-22T08:54:34;4.20;99.90
6098;DHT22;3077;50.922;6.584;2023-11-22T08:57:00;4.20;99.90
6098;DHT22;3077;50.922;6.584;2023-11-22T08:59:26;4.10;99.90
6098;DHT22;3077;50.922;6.584;2023-11-22T09:01:52;4.10;99.90
6098;DHT22;3077;50.922;6.584;2023-11-22T09:04:17;4.10;99.90
6098;DHT22;3077;50.922;6.584;2023-11-22T09:06:44;4.20;99.90
6098;DHT22;3077;50.922;6.584;2023-11-22T09:09:09;4.20;99.90
6098;DHT22;3077;50.922;6.584;2023-11-22T09:11:40;4.30;99.90
6098;DHT22;3077;50.922;6.584;2023-11-22T09:14:06;4.30;99.90
6098;DHT22;3077;50.922;6.584;2023-11-22T09:16:36;4.40;99.90
6098;DHT22;3077;50.922;6.584;2023-11-22T09:19:02;4.50;99.90
6098;DHT22;3077;50.922;6.584;2023-11-22T09:21:28;4.50;99.90
6098;DHT22;3077;50.922;6.584;2023-11-22T09:23:55;4.50;99.90
6098;DHT22;3077;50.922;6.584;2023-11-22T09:26:20;4.50;99.90
6098;DHT22;3077;50.922;6.584;2023-11-22T09:28:46;4.50;99.90
6098;DHT22;3077;50.922;6.584;2023-11-22T09:31:11;4.60;99.90
6098;DHT22;3077;50.922;6.584;2023-11-22T09:33:43;4.70;99.90
6098;DHT22;3077;50.922;6.584;2023-11-22T09:36:09;4.80;99.90
6098;DHT22;3077;50.922;6.584;2023-11-22T09:38:34;5.00;99.90
6098;DHT22;3077;50.922;6.584;2023-11-22T09:41:00;5.00;99.90
6098;DHT22;3077;50.922;6.584;2023-11-22T09:43:28;5.00;99.90
6098;DHT22;3077;50.922;6.584;2023-11-22T09:45:54;5.00;99.90
6098;DHT22;3077;50.922;6.584;2023-11-22T09:48:23;5.10;99.90
6098;DHT22;3077;50.922;6.584;2023-11-22T09:50:53;5.20;99.90
6098;DHT22;3077;50.922;6.584;2023-11-22T09:53:41;5.40;99.90
6098;DHT22;3077;50.922;6.584;2023-11-22T09:56:11;5.70;99.90
6098;DHT22;3077;50.922;6.584;2023-11-22T09:58:41;5.90;99.90
6098;DHT22;3077;50.922;6.584;2023-11-22T10:01:12;6.10;99.90
6098;DHT22;3077;50.922;6.584;2023-11-22T10:03:40;6.30;99.90
6098;DHT22;3077;50.922;6.584;2023-11-22T10:06:06;6.50;99.90
6098;DHT22;3077;50.922;6.584;2023-11-22T10:08:32;6.60;99.90
6098;DHT22;3077;50.922;6.584;2023-11-22T10:10:59;6.70;99.90
6098;DHT22;3077;50.922;6.584;2023-11-22T10:13:25;6.80;91.90
6098;DHT22;3077;50.922;6.584;2023-11-22T10:15:51;6.90;30.50
6098;DHT22;3077;50.922;6.584;2023-11-22T10:18:20;6.90;1.00
6098;DHT22;3077;50.922;6.584;2023-11-22T10:20:48;7.00;1.00
6098;DHT22;3077;50.922;6.584;2023-11-22T10:23:18;7.10;1.00
6098;DHT22;3077;50.922;6.584;2023-11-22T10:28:11;7.40;1.00
6098;DHT22;3077;50.922;6.584;2023-11-22T10:30:37;7.60;1.00
6098;DHT22;3077;50.922;6.584;2023-11-22T10:33:03;7.60;99.90
6098;DHT22;3077;50.922;6.584;2023-11-22T10:35:29;7.70;99.90
6098;DHT22;3077;50.922;6.584;2023-11-22T10:37:55;7.70;1.00
6098;DHT22;3077;50.922;6.584;2023-11-22T10:40:20;7.60;1.00
6098;DHT22;3077;50.922;6.584;2023-11-22T10:42:48;7.80;99.90
6098;DHT22;3077;50.922;6.584;2023-11-22T10:45:17;7.80;99.90
6098;DHT22;3077;50.922;6.584;2023-11-22T10:47:44;7.90;99.90
6098;DHT22;3077;50.922;6.584;2023-11-22T10:50:11;7.80;1.00
6098;DHT22;3077;50.922;6.584;2023-11-22T10:52:41;7.90;1.00
6098;DHT22;3077;50.922;6.584;2023-11-22T10:55:08;8.00;74.70
6098;DHT22;3077;50.922;6.584;2023-11-22T10:57:40;8.10;1.00
6098;DHT22;3077;50.922;6.584;2023-11-22T11:00:08;8.00;99.90
6098;DHT22;3077;50.922;6.584;2023-11-22T11:02:43;8.20;69.30
6098;DHT22;3077;50.922;6.584;2023-11-22T11:05:20;8.30;99.90
6098;DHT22;3077;50.922;6.584;2023-11-22T11:08:08;8.40;99.90
6098;DHT22;3077;50.922;6.584;2023-11-22T11:10:43;8.50;1.00
6098;DHT22;3077;50.922;6.584;2023-11-22T11:13:10;8.70;99.90
6098;DHT22;3077;50.922;6.584;2023-11-22T11:15:40;9.00;1.00
6098;DHT22;3077;50.922;6.584;2023-11-22T11:18:07;9.30;99.90
6098;DHT22;3077;50.922;6.584;2023-11-22T11:20:57;9.70;1.00
6098;DHT22;3077;50.922;6.584;2023-11-22T11:23:26;10.10;99.90
6098;DHT22;3077;50.922;6.584;2023-11-22T11:25:56;10.50;1.00
6098;DHT22;3077;50.922;6.584;2023-11-22T11:28:23;11.10;99.90
6098;DHT22;3077;50.922;6.584;2023-11-22T11:30:56;11.50;52.80
6098;DHT22;3077;50.922;6.584;2023-11-22T11:33:32;11.80;1.00
6098;DHT22;3077;50.922;6.584;2023-11-22T11:36:00;12.10;1.00
6098;DHT22;3077;50.922;6.584;2023-11-22T11:38:35;12.10;99.90
6098;DHT22;3077;50.922;6.584;2023-11-22T11:41:11;12.00;99.90
6098;DHT22;3077;50.922;6.584;2023-11-22T11:43:44;11.70;99.90
6098;DHT22;3077;50.922;6.584;2023-11-22T11:46:11;11.30;99.90
6098;DHT22;3077;50.922;6.584;2023-11-22T11:48:37;11.20;99.90
6098;DHT22;3077;50.922;6.584;2023-11-22T11:51:03;11.20;99.90
6098;DHT22;3077;50.922;6.584;2023-11-22T11:53:28;11.30;99.90
6098;DHT22;3077;50.922;6.584;2023-11-22T11:55:57;11.30;99.90
6098;DHT22;3077;50.922;6.584;2023-11-22T11:58:23;11.10;99.90
6098;DHT22;3077;50.922;6.584;2023-11-22T12:00:51;11.20;99.90
6098;DHT22;3077;50.922;6.584;2023-11-22T12:03:18;11.40;99.90
6098;DHT22;3077;50.922;6.584;2023-11-22T12:05:47;11.40;99.90
6098;DHT22;3077;50.922;6.584;2023-11-22T12:08:14;11.60;99.90
6098;DHT22;3077;50.922;6.584;2023-11-22T12:10:44;11.60;99.90
6098;DHT22;3077;50.922;6.584;2023-11-22T12:13:17;11.70;38.20
6098;DHT22;3077;50.922;6.584;2023-11-22T12:15:42;12.00;63.00
6098;DHT22;3077;50.922;6.584;2023-11-22T12:18:08;12.40;1.00
6098;DHT22;3077;50.922;6.584;2023-11-22T12:20:33;12.40;1.00
6098;DHT22;3077;50.922;6.584;2023-11-22T12:23:01;12.50;1.00
6098;DHT22;3077;50.922;6.584;2023-11-22T12:25:27;12.50;1.00
6098;DHT22;3077;50.922;6.584;2023-11-22T12:27:56;12.30;1.00
6098;DHT22;3077;50.922;6.584;2023-11-22T12:30:33;11.40;99.90
6098;DHT22;3077;50.922;6.584;2023-11-22T12:33:05;11.70;1.00
6098;DHT22;3077;50.922;6.584;2023-11-22T12:35:33;11.40;1.00
6098;DHT22;3077;50.922;6.584;2023-11-22T12:38:04;11.20;28.90
6098;DHT22;3077;50.922;6.584;2023-11-22T12:40:31;11.10;65.80
6098;DHT22;3077;50.922;6.584;2023-11-22T12:42:57;11.00;99.90
6098;DHT22;3077;50.922;6.584;2023-11-22T12:45:24;11.50;99.90
6098;DHT22;3077;50.922;6.584;2023-11-22T12:47:51;12.10;5.10
6098;DHT22;3077;50.922;6.584;2023-11-22T12:50:36;13.50;99.90
6098;DHT22;3077;50.922;6.584;2023-11-22T12:53:12;13.60;1.00
6098;DHT22;3077;50.922;6.584;2023-11-22T12:55:42;14.30;99.90
6098;DHT22;3077;50.922;6.584;2023-11-22T12:58:12;14.70;99.90
6098;DHT22;3077;50.922;6.584;2023-11-22T13:00:41;15.20;99.90
6098;DHT22;3077;50.922;6.584;2023-11-22T13:03:08;15.70;99.90
6098;DHT22;3077;50.922;6.584;2023-11-22T13:05:39;16.30;99.90
6098;DHT22;3077;50.922;6.584;2023-11-22T13:08:05;16.90;99.90
6098;DHT22;3077;50.922;6.584;2023-11-22T13:10:31;17.30;1.00
6098;DHT22;3077;50.922;6.584;2023-11-22T13:12:57;17.70;99.90
6098;DHT22;3077;50.922;6.584;2023-11-22T13:15:23;17.90;99.90
6098;DHT22;3077;50.922;6.584;2023-11-22T13:17:54;18.10;99.90
6098;DHT22;3077;50.922;6.584;2023-11-22T13:20:25;17.70;1.00
6098;DHT22;3077;50.922;6.584;2023-11-22T13:22:54;17.40;99.90
6098;DHT22;3077;50.922;6.584;2023-11-22T13:25:23;17.00;99.90
6098;DHT22;3077;50.922;6.584;2023-11-22T13:27:49;16.70;99.90
6098;DHT22;3077;50.922;6.584;2023-11-22T13:30:16;16.40;1.00
6098;DHT22;3077;50.922;6.584;2023-11-22T13:32:45;16.30;99.90
6098;DHT22;3077;50.922;6.584;2023-11-22T13:35:10;16.20;99.90
6098;DHT22;3077;50.922;6.584;2023-11-22T13:37:41;16.60;99.90
6098;DHT22;3077;50.922;6.584;2023-11-22T13:40:09;17.30;99.90
6098;DHT22;3077;50.922;6.584;2023-11-22T13:42:46;17.50;99.90
6098;DHT22;3077;50.922;6.584;2023-11-22T13:45:14;17.80;99.90
6098;DHT22;3077;50.922;6.584;2023-11-22T13:47:43;17.50;99.90
6098;DHT22;3077;50.922;6.584;2023-11-22T13:50:10;17.80;1.00
6098;DHT22;3077;50.922;6.584;2023-11-22T13:52:36;17.70;99.90
6098;DHT22;3077;50.922;6.584;2023-11-22T13:55:02;18.20;99.90
6098;DHT22;3077;50.922;6.584;2023-11-22T13:57:32;19.00;99.90
6098;DHT22;3077;50.922;6.584;2023-11-22T13:59:57;19.40;99.90
6098;DHT22;3077;50.922;6.584;2023-11-22T14:02:24;18.60;1.00
6098;DHT22;3077;50.922;6.584;2023-11-22T14:04:49;17.50;99.90
6098;DHT22;3077;50.922;6.584;2023-11-22T14:07:15;15.90;99.90
6098;DHT22;3077;50.922;6.584;2023-11-22T14:09:40;14.90;99.90
6098;DHT22;3077;50.922;6.584;2023-11-22T14:12:06;14.20;99.90
6098;DHT22;3077;50.922;6.584;2023-11-22T14:14:32;13.60;99.90
6098;DHT22;3077;50.922;6.584;2023-11-22T14:16:57;12.90;99.90
6098;DHT22;3077;50.922;6.584;2023-11-22T14:19:23;12.40;99.90
6098;DHT22;3077;50.922;6.584;2023-11-22T14:21:49;12.20;99.90
6098;DHT22;3077;50.922;6.584;2023-11-22T14:24:14;11.70;99.90
6098;DHT22;3077;50.922;6.584;2023-11-22T14:26:40;11.30;99.90
6098;DHT22;3077;50.922;6.584;2023-11-22T14:29:06;11.10;99.90
6098;DHT22;3077;50.922;6.584;2023-11-22T14:31:32;10.90;99.90
6098;DHT22;3077;50.922;6.584;2023-11-22T14:33:58;10.60;99.90
6098;DHT22;3077;50.922;6.584;2023-11-22T14:36:24;10.50;99.90
6098;DHT22;3077;50.922;6.584;2023-11-22T14:38:50;10.10;99.90
6098;DHT22;3077;50.922;6.584;2023-11-22T14:41:20;9.90;99.90
6098;DHT22;3077;50.922;6.584;2023-11-22T14:43:46;9.60;99.90
6098;DHT22;3077;50.922;6.584;2023-11-22T14:46:12;9.40;99.90
6098;DHT22;3077;50.922;6.584;2023-11-22T14:48:38;9.20;99.90
6098;DHT22;3077;50.922;6.584;2023-11-22T14:51:03;9.00;99.90
6098;DHT22;3077;50.922;6.584;2023-11-22T14:53:29;9.00;99.90
6098;DHT22;3077;50.922;6.584;2023-11-22T14:55:55;8.90;99.90
6098;DHT22;3077;50.922;6.584;2023-11-22T14:58:20;8.90;1.00
6098;DHT22;3077;50.922;6.584;2023-11-22T15:00:46;8.80;1.00
6098;DHT22;3077;50.922;6.584;2023-11-22T15:03:12;8.80;1.00
6098;DHT22;3077;50.922;6.584;2023-11-22T15:05:38;8.80;1.00
6098;DHT22;3077;50.922;6.584;2023-11-22T15:08:03;8.90;1.00
6098;DHT22;3077;50.922;6.584;2023-11-22T15:10:29;8.90;1.00
6098;DHT22;3077;50.922;6.584;2023-11-22T15:12:54;8.80;1.00
6098;DHT22;3077;50.922;6.584;2023-11-22T15:15:20;8.70;1.00
6098;DHT22;3077;50.922;6.584;2023-11-22T15:17:50;8.80;1.00
6098;DHT22;3077;50.922;6.584;2023-11-22T15:20:16;8.90;99.90
6098;DHT22;3077;50.922;6.584;2023-11-22T15:22:42;8.80;1.00
6098;DHT22;3077;50.922;6.584;2023-11-22T15:25:08;8.80;1.00
6098;DHT22;3077;50.922;6.584;2023-11-22T15:27:35;8.70;1.00
6098;DHT22;3077;50.922;6.584;2023-11-22T15:30:01;8.60;1.00
6098;DHT22;3077;50.922;6.584;2023-11-22T15:32:28;8.50;1.00
6098;DHT22;3077;50.922;6.584;2023-11-22T15:34:54;8.50;1.00
6098;DHT22;3077;50.922;6.584;2023-11-22T15:37:19;8.50;1.00
6098;DHT22;3077;50.922;6.584;2023-11-22T15:39:45;8.40;1.00
6098;DHT22;3077;50.922;6.584;2023-11-22T15:42:11;8.40;1.00
6098;DHT22;3077;50.922;6.584;2023-11-22T15:44:37;8.40;1.00
6098;DHT22;3077;50.922;6.584;2023-11-22T15:47:03;8.40;1.00
6098;DHT22;3077;50.922;6.584;2023-11-22T15:49:36;8.40;1.00
6098;DHT22;3077;50.922;6.584;2023-11-22T15:52:02;8.40;7.90
6098;DHT22;3077;50.922;6.584;2023-11-22T15:54:27;8.40;99.90
6098;DHT22;3077;50.922;6.584;2023-11-22T15:56:53;8.40;86.20
6098;DHT22;3077;50.922;6.584;2023-11-22T15:59:19;8.40;99.90
6098;DHT22;3077;50.922;6.584;2023-11-22T16:01:44;8.40;99.90
6098;DHT22;3077;50.922;6.584;2023-11-22T16:04:10;8.30;99.90
6098;DHT22;3077;50.922;6.584;2023-11-22T16:06:37;8.30;99.90
6098;DHT22;3077;50.922;6.584;2023-11-22T16:09:04;8.30;99.90
6098;DHT22;3077;50.922;6.584;2023-11-22T16:11:33;8.20;99.90
6098;DHT22;3077;50.922;6.584;2023-11-22T16:13:59;8.20;99.90
6098;DHT22;3077;50.922;6.584;2023-11-22T16:16:24;8.10;1.00
6098;DHT22;3077;50.922;6.584;2023-11-22T16:18:52;8.00;1.00